createdAt,value
2022-08-26T00:00:24.247Z,99744.53
2022-08-26T00:05:28.366Z,99746.28
2022-08-26T00:10:34.427Z,99755.69
2022-08-26T00:15:39.180Z,99749.53
2022-08-26T00:20:43.189Z,99759.25
2022-08-26T00:25:48.639Z,99758.13
2022-08-26T00:30:53.485Z,99751.16
2022-08-26T00:35:57.810Z,99754.75
2022-08-26T00:41:05.419Z,99754.78
2022-08-26T00:46:12.465Z,99754.03
2022-08-26T00:51:19.861Z,99754.03
2022-08-26T00:56:30.141Z,99752.22
2022-08-26T01:01:34.090Z,99748.88
2022-08-26T01:06:37.705Z,99750.66
2022-08-26T01:11:43.225Z,99739.41
2022-08-26T01:16:48.011Z,99746.94
2022-08-26T01:21:59.198Z,99743.31
2022-08-26T01:27:08.976Z,99747.88
2022-08-26T01:32:18.105Z,99749.59
2022-08-26T01:37:25.424Z,99749.81
2022-08-26T01:42:30.901Z,99743.78
2022-08-26T01:47:37.951Z,99749.06
2022-08-26T01:52:44.570Z,99749.06
2022-08-26T01:57:57.460Z,99746.50
2022-08-26T02:03:18.027Z,99750.09
2022-08-26T02:08:27.248Z,99751.91
2022-08-26T02:13:34.282Z,99757.09
2022-08-26T02:18:40.112Z,99767.69
2022-08-26T02:23:43.829Z,99757.06
2022-08-26T02:28:54.812Z,99762.97
2022-08-26T02:34:10.748Z,99755.94
2022-08-26T02:39:19.561Z,99760.41
2022-08-26T02:44:28.269Z,99759.94
2022-08-26T02:49:32.194Z,99772.81
2022-08-26T02:54:36.133Z,99759.34
2022-08-26T02:59:41.245Z,99759.75
2022-08-26T03:04:57.339Z,99755.84
2022-08-26T03:10:08.481Z,99757.78
2022-08-26T03:15:17.889Z,99759.84
2022-08-26T03:20:23.256Z,99747.31
2022-08-26T03:25:28.248Z,99754.41
2022-08-26T03:30:44.818Z,99751.53
2022-08-26T03:35:50.714Z,99757.25
2022-08-26T03:40:55.656Z,99754.56
2022-08-26T03:46:00.561Z,99754.25
2022-08-26T03:51:08.329Z,99761.06
2022-08-26T03:56:16.189Z,99756.72
2022-08-26T04:01:21.105Z,99759.63
2022-08-26T04:06:25.132Z,99764.13
2022-08-26T04:11:34.128Z,99763.84
2022-08-26T04:16:40.256Z,99766.63
2022-08-26T04:21:45.152Z,99764.66
2022-08-26T04:26:49.590Z,99770.41
2022-08-26T04:31:56.135Z,99772.00
2022-08-26T04:37:00.110Z,99773.72
2022-08-26T04:42:03.574Z,99773.31
2022-08-26T04:47:08.460Z,99776.03
2022-08-26T04:52:13.438Z,99779.34
2022-08-26T04:57:16.970Z,99781.25
2022-08-26T05:02:22.496Z,99788.09
2022-08-26T05:07:27.913Z,99790.72
2022-08-26T05:12:32.381Z,99808.63
2022-08-26T05:17:38.231Z,99801.53
2022-08-26T05:22:42.890Z,99808.31
2022-08-26T05:27:46.793Z,99804.91
2022-08-26T05:32:55.334Z,99822.31
2022-08-26T05:38:00.657Z,99815.53
2022-08-26T05:43:08.197Z,99827.69
2022-08-26T05:48:15.524Z,99817.75
2022-08-26T05:53:22.133Z,99818.59
2022-08-26T05:58:28.838Z,99821.59
2022-08-26T06:03:35.840Z,99820.09
2022-08-26T06:08:40.072Z,99823.69
2022-08-26T06:13:44.867Z,99821.81
2022-08-26T06:18:51.428Z,99821.13
2022-08-26T06:24:14.504Z,99816.53
2022-08-26T06:29:24.184Z,99811.34
2022-08-26T06:34:32.873Z,99824.84
2022-08-26T06:39:41.188Z,99825.69
2022-08-26T06:44:45.389Z,99822.78
2022-08-26T06:49:51.110Z,99829.94
2022-08-26T06:54:57.938Z,99829.69
2022-08-26T07:00:04.005Z,99823.22
2022-08-26T07:05:10.356Z,99822.97
2022-08-26T07:10:14.008Z,99832.22
2022-08-26T07:15:17.726Z,99831.22
2022-08-26T07:20:29.140Z,99825.59
2022-08-26T07:25:32.718Z,99824.53
2022-08-26T07:30:40.969Z,99825.09
2022-08-26T07:35:47.755Z,99821.31
2022-08-26T07:40:51.416Z,99822.03
2022-08-26T07:45:57.735Z,99812.03
2022-08-26T07:51:04.891Z,99811.75
2022-08-26T07:56:10.674Z,99804.72
2022-08-26T08:01:15.212Z,99804.38
2022-08-26T08:06:21.730Z,99799.97
2022-08-26T08:11:27.322Z,99799.28
2022-08-26T08:16:32.219Z,99798.09
2022-08-26T08:21:38.295Z,99786.09
2022-08-26T08:26:41.987Z,99780.22
2022-08-26T08:31:56.467Z,99772.91
2022-08-26T08:37:05.247Z,99777.31
2022-08-26T08:42:37.972Z,99768.06
2022-08-26T08:47:44.170Z,99761.75
2022-08-26T08:52:56.250Z,99753.75
2022-08-26T08:58:04.927Z,99746.28
2022-08-26T09:03:19.510Z,99749.69
2022-08-26T09:08:29.546Z,99740.00
2022-08-26T09:13:33.021Z,99749.63
2022-08-26T09:18:49.717Z,99745.59
2022-08-26T09:23:56.961Z,99743.72
2022-08-26T09:29:02.595Z,99740.97
2022-08-26T09:34:17.466Z,99734.50
2022-08-26T09:39:37.720Z,99737.56
2022-08-26T09:44:57.041Z,99729.44
2022-08-26T09:50:09.602Z,99732.44
2022-08-26T09:55:17.292Z,99730.50
2022-08-26T10:00:31.273Z,99721.63
2022-08-26T10:05:44.398Z,99719.41
2022-08-26T10:10:53.110Z,99719.88
2022-08-26T10:16:02.921Z,99717.13
2022-08-26T10:21:13.691Z,99718.88
2022-08-26T10:26:24.149Z,99715.03
2022-08-26T10:31:30.923Z,99696.22
2022-08-26T10:37:14.990Z,99698.16
2022-08-26T10:42:24.799Z,99700.13
2022-08-26T10:47:36.207Z,99688.66
2022-08-26T10:52:53.536Z,99682.34
2022-08-26T10:58:09.175Z,99680.94
2022-08-26T11:03:32.108Z,99677.44
2022-08-26T11:08:35.604Z,99676.88
2022-08-26T11:14:02.222Z,99671.91
2022-08-26T11:19:06.881Z,99666.31
2022-08-26T11:24:11.308Z,99662.16
2022-08-26T11:29:55.129Z,99659.75
2022-08-26T11:35:01.829Z,99653.53
2022-08-26T11:40:10.992Z,99652.81
2022-08-26T11:45:20.406Z,99658.59
2022-08-26T11:50:27.099Z,99648.00
2022-08-26T11:55:33.372Z,99648.47
2022-08-26T12:00:51.889Z,99657.38
2022-08-26T12:05:57.370Z,99654.66
2022-08-26T12:11:06.507Z,99652.09
2022-08-26T12:16:11.619Z,99639.91
2022-08-26T12:21:22.204Z,99646.09
2022-08-26T12:26:30.048Z,99645.13
2022-08-26T12:31:37.189Z,99646.53
2022-08-26T12:36:47.024Z,99647.28
2022-08-26T12:41:53.355Z,99641.03
2022-08-26T12:47:05.600Z,99619.09
2022-08-26T12:52:30.046Z,99632.16
2022-08-26T12:57:36.400Z,99632.44
2022-08-26T13:02:42.288Z,99598.25
2022-08-26T13:07:45.941Z,99613.41
2022-08-26T13:12:49.383Z,99615.28
2022-08-26T13:17:54.146Z,99610.78
2022-08-26T13:23:03.254Z,99586.09
2022-08-26T13:28:06.778Z,99591.47
2022-08-26T13:33:12.646Z,99596.72
2022-08-26T13:38:32.857Z,99592.88
2022-08-26T13:43:37.327Z,99586.66
2022-08-26T13:48:42.243Z,99586.94
2022-08-26T13:53:48.529Z,99585.03
2022-08-26T13:58:51.958Z,99592.22
2022-08-26T14:03:56.999Z,99595.19
2022-08-26T14:09:00.796Z,99585.69
2022-08-26T14:14:04.716Z,99588.19
2022-08-26T14:19:10.998Z,99588.91
2022-08-26T14:24:14.556Z,99586.16
2022-08-26T14:29:19.364Z,99580.31
2022-08-26T14:34:25.409Z,99580.00
2022-08-26T14:39:28.905Z,99561.13
2022-08-26T14:44:34.547Z,99576.84
2022-08-26T14:49:39.607Z,99575.88
2022-08-26T14:54:43.114Z,99574.34
2022-08-26T14:59:50.410Z,99577.38
2022-08-26T15:04:55.633Z,99580.00
2022-08-26T15:09:59.729Z,99582.81
2022-08-26T15:15:03.623Z,99592.09
2022-08-26T15:20:11.133Z,99597.28
2022-08-26T15:25:15.185Z,99592.19
2022-08-26T15:30:19.758Z,99598.13
2022-08-26T15:35:25.365Z,99595.81
2022-08-26T15:40:29.023Z,99596.50
2022-08-26T15:45:34.947Z,99600.31
2022-08-26T15:50:50.455Z,99604.34
2022-08-26T15:55:56.315Z,99596.94
2022-08-26T16:01:00.133Z,99601.56
2022-08-26T16:06:06.219Z,99603.75
2022-08-26T16:11:10.504Z,99606.69
2022-08-26T16:16:14.772Z,99612.97
2022-08-26T16:21:22.085Z,99609.97
2022-08-26T16:26:28.952Z,99604.97
2022-08-26T16:31:32.595Z,99616.22
2022-08-26T16:36:39.382Z,99609.09
2022-08-26T16:41:43.548Z,99607.81
2022-08-26T16:46:47.055Z,99610.56
2022-08-26T16:51:51.861Z,99619.50
2022-08-26T16:56:55.711Z,99620.78
2022-08-26T17:01:59.938Z,99612.22
2022-08-26T17:07:05.203Z,99627.50
2022-08-26T17:12:09.322Z,99626.34
2022-08-26T17:17:13.017Z,99628.56
2022-08-26T17:22:18.357Z,99622.97
2022-08-26T17:27:22.175Z,99624.78
2022-08-26T17:32:26.527Z,99615.34
2022-08-26T17:37:31.542Z,99617.78
2022-08-26T17:42:35.537Z,99617.25
2022-08-26T17:47:39.886Z,99617.34
2022-08-26T17:52:45.878Z,99625.09
2022-08-26T17:57:53.382Z,99620.72
2022-08-26T18:02:57.639Z,99620.66
2022-08-26T18:08:03.312Z,99618.56
2022-08-26T18:13:06.878Z,99624.63
2022-08-26T18:18:11.087Z,99631.28
2022-08-26T18:23:16.144Z,99630.06
2022-08-26T18:28:21.160Z,99641.25
2022-08-26T18:33:25.075Z,99634.88
2022-08-26T18:38:29.927Z,99636.22
2022-08-26T18:43:34.395Z,99642.78
2022-08-26T18:48:39.764Z,99646.53
2022-08-26T18:53:44.761Z,99640.03
2022-08-26T18:58:49.212Z,99645.31
2022-08-26T19:03:52.870Z,99648.72
2022-08-26T19:08:57.999Z,99649.78
2022-08-26T19:14:02.293Z,99651.88
2022-08-26T19:19:06.237Z,99658.19
2022-08-26T19:24:17.695Z,99664.72
2022-08-26T19:29:23.535Z,99659.13
2022-08-26T19:34:28.048Z,99654.50
2022-08-26T19:39:32.932Z,99665.25
2022-08-26T19:44:54.065Z,99678.22
2022-08-26T19:49:58.364Z,99675.19
2022-08-26T19:55:03.513Z,99676.22
2022-08-26T20:00:11.108Z,99676.09
2022-08-26T20:05:16.519Z,99692.13
2022-08-26T20:10:24.360Z,99686.06
2022-08-26T20:15:28.548Z,99689.19
2022-08-26T20:20:51.174Z,99699.34
2022-08-26T20:25:57.507Z,99693.19
2022-08-26T20:31:01.878Z,99698.66
2022-08-26T20:36:07.239Z,99697.97
2022-08-26T20:41:12.527Z,99692.94
2022-08-26T20:46:19.555Z,99700.38
2022-08-26T20:51:25.427Z,99704.22
2022-08-26T20:56:30.416Z,99702.63
2022-08-26T21:01:37.154Z,99700.28
2022-08-26T21:06:52.112Z,99706.03
2022-08-26T21:11:57.449Z,99706.50
2022-08-26T21:17:01.290Z,99712.09
2022-08-26T21:22:05.590Z,99712.50
2022-08-26T21:27:10.522Z,99707.34
2022-08-26T21:32:15.810Z,99713.63
2022-08-26T21:37:19.408Z,99712.19
2022-08-26T21:42:26.661Z,99716.00
2022-08-26T21:47:32.689Z,99728.97
2022-08-26T21:52:36.260Z,99725.25
2022-08-26T21:57:41.156Z,99727.03
2022-08-26T22:02:45.075Z,99728.31
2022-08-26T22:07:48.571Z,99738.09
2022-08-26T22:12:53.510Z,99730.19
2022-08-26T22:17:57.122Z,99725.97
2022-08-26T22:23:01.221Z,99727.91
2022-08-26T22:28:07.894Z,99731.34
2022-08-26T22:33:11.990Z,99722.16
2022-08-26T22:38:16.546Z,99713.72
2022-08-26T22:43:21.530Z,99724.16
2022-08-26T22:48:27.117Z,99716.53
2022-08-26T22:53:30.723Z,99716.59
2022-08-26T22:58:41.536Z,99711.31
2022-08-26T23:03:45.356Z,99709.78
2022-08-26T23:08:49.510Z,99713.25
2022-08-26T23:13:54.786Z,99707.94
2022-08-26T23:18:58.446Z,99725.28
2022-08-26T23:24:02.471Z,99710.44
2022-08-26T23:29:09.114Z,99722.03
2022-08-26T23:34:30.495Z,99715.88
2022-08-26T23:39:35.390Z,99719.06
2022-08-26T23:44:40.796Z,99724.19
2022-08-26T23:49:44.317Z,99725.94
2022-08-26T23:54:48.748Z,99720.72
2022-08-26T23:59:53.945Z,99721.59
